Time;durP1;ratioP1;P1;durP2;ratioP2;P2;SDS_P1;SDS_P2;PMS_P1;PMS_P2;Temp;Humidity;BMP_temperature;BMP_pressure;BME280_temperature;BME280_humidity;BME280_pressure;Samples;Min_cycle;Max_cycle;Signal;HPM_P1;HPM_P2
2021/09/14 00:01:09;;;;;;;5.45;4.95;;;;;;;;;;5014586;28;20366;-59
2021/09/14 00:03:34;;;;;;;5.60;5.10;;;;;;;;;;5014689;28;20030;-58
2021/09/14 00:06:00;;;;;;;6.45;4.78;;;;;;;;;;5014758;28;20495;-58
2021/09/14 00:08:25;;;;;;;5.75;5.00;;;;;;;;;;4997334;28;20045;-59
2021/09/14 00:10:51;;;;;;;7.50;5.25;;;;;;;;;;5014906;28;20030;-61
2021/09/14 00:13:17;;;;;;;5.75;4.82;;;;;;;;;;5014199;28;20037;-61
2021/09/14 00:15:42;;;;;;;6.68;4.93;;;;;;;;;;5014514;28;20038;-59
2021/09/14 00:18:08;;;;;;;5.38;4.88;;;;;;;;;;5014548;28;20038;-58
2021/09/14 00:20:33;;;;;;;7.50;5.28;;;;;;;;;;4997045;28;20113;-58
2021/09/14 00:22:59;;;;;;;5.28;4.80;;;;;;;;;;4996856;28;20037;-58
2021/09/14 00:25:24;;;;;;;6.10;5.00;;;;;;;;;;5014483;28;20029;-59
2021/09/14 00:27:50;;;;;;;5.50;5.00;;;;;;;;;;4996751;28;20459;-58
2021/09/14 00:30:15;;;;;;;5.40;4.65;;;;;;;;;;4980386;28;20034;-58
2021/09/14 00:32:41;;;;;;;5.22;4.72;;;;;;;;;;5014344;28;20042;-59
2021/09/14 00:35:07;;;;;;;5.47;4.45;;;;;;;;;;5013838;28;20040;-60
2021/09/14 00:37:32;;;;;;;5.35;4.93;;;;;;;;;;5013981;28;20124;-60
2021/09/14 00:39:58;;;;;;;6.57;4.53;;;;;;;;;;5013938;28;20068;-60
2021/09/14 00:42:23;;;;;;;4.88;4.40;;;;;;;;;;5013810;28;20112;-60
2021/09/14 00:44:49;;;;;;;4.63;4.22;;;;;;;;;;5014303;28;20026;-61
2021/09/14 00:47:15;;;;;;;4.80;4.05;;;;;;;;;;4995641;28;20481;-62
2021/09/14 00:49:40;;;;;;;4.75;4.35;;;;;;;;;;5014565;28;20038;-61
2021/09/14 00:52:07;;;;;;;5.55;4.30;;;;;;;;;;5014183;28;20033;-61
2021/09/14 00:54:36;;;;;;;4.82;4.13;;;;;;;;;;5013188;28;20120;-61
2021/09/14 00:57:02;;;;;;;4.80;4.40;;;;;;;;;;4996158;28;20476;-61
2021/09/14 00:59:28;;;;;;;8.63;5.80;;;;;;;;;;5013910;28;20025;-59
2021/09/14 01:01:54;;;;;;;6.20;5.07;;;;;;;;;;5013952;28;20616;-60
2021/09/14 01:04:19;;;;;;;5.40;4.90;;;;;;;;;;4996268;28;20033;-60
2021/09/14 01:06:45;;;;;;;4.47;4.07;;;;;;;;;;4996132;28;20056;-60
2021/09/14 01:09:11;;;;;;;4.50;4.20;;;;;;;;;;4979746;28;20368;-60
2021/09/14 01:11:38;;;;;;;4.13;3.83;;;;;;;;;;4995959;28;20060;-60
2021/09/14 01:14:05;;;;;;;4.78;4.15;;;;;;;;;;4996217;28;20112;-61
2021/09/14 01:16:32;;;;;;;4.03;3.72;;;;;;;;;;4996034;28;20042;-62
2021/09/14 01:18:59;;;;;;;5.47;3.97;;;;;;;;;;5014027;28;20037;-59
2021/09/14 01:21:26;;;;;;;6.47;4.03;;;;;;;;;;5013603;28;20033;-60
2021/09/14 01:23:51;;;;;;;5.20;4.32;;;;;;;;;;5013954;28;20080;-60
2021/09/14 01:26:18;;;;;;;4.15;3.85;;;;;;;;;;5013775;28;20077;-61
2021/09/14 01:28:44;;;;;;;5.22;3.80;;;;;;;;;;4996129;28;20120;-60
2021/09/14 01:31:09;;;;;;;4.85;4.18;;;;;;;;;;4995955;28;20483;-60
2021/09/14 01:33:35;;;;;;;4.20;3.70;;;;;;;;;;5013357;28;20369;-59
2021/09/14 01:36:00;;;;;;;4.07;3.67;;;;;;;;;;4995871;28;20105;-59
2021/09/14 01:38:26;;;;;;;5.80;4.28;;;;;;;;;;4996000;28;20424;-59
2021/09/14 01:40:53;;;;;;;4.80;4.28;;;;;;;;;;4991795;28;20501;-59
2021/09/14 01:43:19;;;;;;;4.63;4.22;;;;;;;;;;4992413;28;20046;-59
2021/09/14 01:45:47;;;;;;;4.72;4.32;;;;;;;;;;4992418;28;20097;-59
2021/09/14 01:48:22;;;;;;;6.43;4.82;;;;;;;;;;4992696;28;20065;-59
2021/09/14 01:50:48;;;;;;;5.40;4.68;;;;;;;;;;4976460;28;20050;-59
2021/09/14 01:53:15;;;;;;;5.03;4.57;;;;;;;;;;4993847;28;20030;-59
2021/09/14 01:55:40;;;;;;;4.88;4.38;;;;;;;;;;4992487;28;20043;-61
2021/09/14 01:58:07;;;;;;;5.88;4.68;;;;;;;;;;4992203;28;20362;-61
2021/09/14 02:00:37;;;;;;;5.90;4.65;;;;;;;;;;4992750;28;20040;-61
2021/09/14 02:38:29;;;;;;;3.92;3.53;;;;;;;;;;4995789;28;20092;-62
2021/09/14 02:41:18;;;;;;;5.28;3.83;;;;;;;;;;4995113;28;20042;-63
2021/09/14 03:00:01;;;;;;;4.40;4.05;;;;;;;;;;4995015;28;20066;-61
2021/09/14 03:02:28;;;;;;;4.55;4.07;;;;;;;;;;4995213;28;20030;-61
2021/09/14 03:04:53;;;;;;;4.60;4.20;;;;;;;;;;4995048;28;20049;-60
2021/09/14 03:07:21;;;;;;;5.72;4.10;;;;;;;;;;4995002;28;20034;-59
2021/09/14 03:09:47;;;;;;;3.72;3.45;;;;;;;;;;4995065;28;20042;-59
2021/09/14 03:12:13;;;;;;;3.78;3.58;;;;;;;;;;4994962;28;20022;-60
2021/09/14 03:14:44;;;;;;;3.78;3.47;;;;;;;;;;4994874;28;20040;-59
2021/09/14 03:17:10;;;;;;;4.22;3.85;;;;;;;;;;4994284;28;20130;-62
2021/09/14 03:19:35;;;;;;;4.13;3.85;;;;;;;;;;4995165;28;20460;-62
2021/09/14 03:22:01;;;;;;;4.35;4.00;;;;;;;;;;4995064;28;20030;-62
2021/09/14 03:24:28;;;;;;;4.22;3.90;;;;;;;;;;4994498;28;20026;-62
2021/09/14 03:26:58;;;;;;;4.00;3.55;;;;;;;;;;4994614;28;20035;-62
2021/09/14 03:29:24;;;;;;;6.78;4.13;;;;;;;;;;4994057;28;20488;-62
2021/09/14 03:31:49;;;;;;;4.28;3.90;;;;;;;;;;4996339;28;20041;-62
2021/09/14 03:34:15;;;;;;;4.18;3.83;;;;;;;;;;4994722;28;20041;-62
2021/09/14 03:36:41;;;;;;;4.05;3.75;;;;;;;;;;4994639;28;20052;-62
2021/09/14 03:39:07;;;;;;;4.63;4.22;;;;;;;;;;4978584;28;20120;-62
2021/09/14 03:41:34;;;;;;;5.72;4.63;;;;;;;;;;4993938;28;20038;-63
2021/09/14 03:43:59;;;;;;;6.18;4.13;;;;;;;;;;4994349;28;20125;-62
2021/09/14 03:46:24;;;;;;;5.25;4.38;;;;;;;;;;4994456;28;20068;-62
2021/09/14 03:48:51;;;;;;;3.97;3.30;;;;;;;;;;4994195;28;20034;-62
2021/09/14 03:51:19;;;;;;;3.92;3.63;;;;;;;;;;4994075;28;20038;-61
2021/09/14 03:53:45;;;;;;;3.72;3.50;;;;;;;;;;4994367;28;20033;-62
2021/09/14 03:56:11;;;;;;;3.80;3.47;;;;;;;;;;4994083;28;20042;-58
2021/09/14 03:58:38;;;;;;;6.28;4.05;;;;;;;;;;4993983;28;20038;-59
2021/09/14 04:01:06;;;;;;;4.03;3.70;;;;;;;;;;4993932;28;20417;-61
2021/09/14 04:08:52;;;;;;;4.40;4.07;;;;;;;;;;4993428;28;20117;-61
2021/09/14 04:11:23;;;;;;;5.88;4.70;;;;;;;;;;4987778;28;20551;-62
2021/09/14 04:13:52;;;;;;;5.13;4.63;;;;;;;;;;4993582;28;20424;-62
2021/09/14 04:16:18;;;;;;;6.38;5.45;;;;;;;;;;4993407;28;20397;-62
2021/09/14 04:18:44;;;;;;;8.43;6.78;;;;;;;;;;4993272;28;20378;-62
2021/09/14 04:21:10;;;;;;;8.68;6.90;;;;;;;;;;4993658;28;20037;-61
2021/09/14 04:23:36;;;;;;;4.88;4.38;;;;;;;;;;4992959;28;20444;-62
2021/09/14 04:26:01;;;;;;;5.80;5.00;;;;;;;;;;4993390;28;20030;-62
2021/09/14 04:28:31;;;;;;;5.18;4.68;;;;;;;;;;4992572;28;20117;-62
2021/09/14 04:30:56;;;;;;;5.40;4.93;;;;;;;;;;4993345;28;20030;-61
2021/09/14 04:33:21;;;;;;;7.70;5.47;;;;;;;;;;4993492;28;20043;-62
2021/09/14 04:35:47;;;;;;;7.55;5.75;;;;;;;;;;4993565;28;20430;-62
2021/09/14 04:38:13;;;;;;;4.78;4.38;;;;;;;;;;4993207;28;20037;-61
2021/09/14 04:40:39;;;;;;;5.45;4.95;;;;;;;;;;4992615;28;20053;-62
2021/09/14 04:43:05;;;;;;;6.43;4.53;;;;;;;;;;4993266;28;20045;-61
2021/09/14 04:45:31;;;;;;;4.20;3.90;;;;;;;;;;4993149;28;20576;-61
2021/09/14 04:47:57;;;;;;;4.43;4.13;;;;;;;;;;4992998;28;20081;-60
2021/09/14 04:50:22;;;;;;;4.85;3.97;;;;;;;;;;4994193;28;20034;-61
2021/09/14 04:52:48;;;;;;;4.63;4.22;;;;;;;;;;4992996;28;20377;-61
2021/09/14 04:55:14;;;;;;;4.70;4.30;;;;;;;;;;4992902;28;20098;-61
2021/09/14 04:57:39;;;;;;;5.93;4.82;;;;;;;;;;4992941;28;20034;-62
2021/09/14 05:00:05;;;;;;;5.47;4.63;;;;;;;;;;4994180;28;20034;-61
2021/09/14 05:02:33;;;;;;;4.55;4.00;;;;;;;;;;4993331;28;20030;-62
2021/09/14 05:04:59;;;;;;;5.10;4.07;;;;;;;;;;4992900;28;20032;-62
2021/09/14 05:07:26;;;;;;;7.55;5.80;;;;;;;;;;4993556;28;20038;-62
2021/09/14 05:09:52;;;;;;;6.85;5.20;;;;;;;;;;4992877;28;20096;-61
2021/09/14 05:12:18;;;;;;;4.20;3.80;;;;;;;;;;4992823;28;20440;-61
2021/09/14 05:14:43;;;;;;;4.53;3.90;;;;;;;;;;4976349;28;20030;-61
2021/09/14 05:17:17;;;;;;;5.03;4.07;;;;;;;;;;4992795;28;20034;-61
2021/09/14 05:19:55;;;;;;;5.47;4.13;;;;;;;;;;4992676;28;20038;-61
2021/09/14 05:22:28;;;;;;;4.68;4.15;;;;;;;;;;4976824;28;20035;-61
2021/09/14 05:24:54;;;;;;;5.22;3.97;;;;;;;;;;4992530;28;20405;-61
2021/09/14 05:27:19;;;;;;;4.15;3.83;;;;;;;;;;4992611;28;20026;-61
2021/09/14 05:29:47;;;;;;;4.47;4.07;;;;;;;;;;4994565;28;20035;-61
2021/09/14 05:32:17;;;;;;;4.22;3.92;;;;;;;;;;4992978;28;20368;-61
2021/09/14 05:34:45;;;;;;;4.40;4.03;;;;;;;;;;4992423;28;20050;-61
2021/09/14 05:37:13;;;;;;;4.88;3.88;;;;;;;;;;4992559;28;20027;-61
2021/09/14 05:39:39;;;;;;;4.22;3.92;;;;;;;;;;4993011;28;20042;-61
2021/09/14 05:42:06;;;;;;;5.22;4.38;;;;;;;;;;4980128;28;20197;-62
2021/09/14 05:44:34;;;;;;;6.35;4.35;;;;;;;;;;4996330;28;20030;-62
2021/09/14 05:47:00;;;;;;;4.43;4.00;;;;;;;;;;4996335;28;20554;-60
2021/09/14 05:49:26;;;;;;;4.22;3.92;;;;;;;;;;4996238;28;20041;-60
2021/09/14 05:51:51;;;;;;;4.40;4.07;;;;;;;;;;4996459;28;20026;-60
2021/09/14 05:54:17;;;;;;;4.28;3.80;;;;;;;;;;4996213;28;20039;-59
2021/09/14 05:56:43;;;;;;;7.72;4.22;;;;;;;;;;4996409;28;20516;-59
2021/09/14 05:59:11;;;;;;;4.38;3.90;;;;;;;;;;4996097;28;20125;-59
2021/09/14 06:01:38;;;;;;;5.00;3.78;;;;;;;;;;4996161;28;20026;-60
2021/09/14 06:04:04;;;;;;;8.77;5.00;;;;;;;;;;4996117;28;20045;-60
2021/09/14 06:06:29;;;;;;;4.85;3.78;;;;;;;;;;4995993;28;20458;-60
2021/09/14 06:08:55;;;;;;;5.53;4.60;;;;;;;;;;4996509;28;20145;-60
2021/09/14 06:11:21;;;;;;;8.93;4.70;;;;;;;;;;4995875;28;20026;-59
2021/09/14 06:13:48;;;;;;;7.53;5.18;;;;;;;;;;4995558;28;20138;-62
2021/09/14 06:16:16;;;;;;;5.53;5.03;;;;;;;;;;4996050;28;20035;-62
2021/09/14 06:18:42;;;;;;;7.43;5.05;;;;;;;;;;4995771;28;20038;-61
2021/09/14 06:21:09;;;;;;;4.68;4.28;;;;;;;;;;4996126;28;20429;-62
2021/09/14 06:23:36;;;;;;;9.18;5.40;;;;;;;;;;4995818;28;20125;-62
2021/09/14 06:26:09;;;;;;;5.90;4.93;;;;;;;;;;4995323;28;20026;-62
2021/09/14 06:28:36;;;;;;;5.93;5.32;;;;;;;;;;4995839;28;20133;-62
2021/09/14 06:31:03;;;;;;;6.25;4.88;;;;;;;;;;4995540;28;20489;-62
2021/09/14 06:33:32;;;;;;;5.88;5.13;;;;;;;;;;4995637;28;20065;-62
2021/09/14 06:35:58;;;;;;;6.30;4.90;;;;;;;;;;4995555;28;20481;-62
2021/09/14 06:38:29;;;;;;;7.80;6.13;;;;;;;;;;4995936;28;20109;-62
2021/09/14 06:40:55;;;;;;;5.88;5.05;;;;;;;;;;4994867;28;20030;-62
2021/09/14 06:43:30;;;;;;;7.18;5.18;;;;;;;;;;4995116;28;20046;-62
2021/09/14 06:46:28;;;;;;;6.05;5.15;;;;;;;;;;4963384;28;20042;-62
2021/09/14 06:49:04;;;;;;;8.75;5.90;;;;;;;;;;4995433;28;20042;-62
2021/09/14 06:51:30;;;;;;;7.68;5.78;;;;;;;;;;4995559;28;20034;-62
2021/09/14 06:53:55;;;;;;;6.95;5.70;;;;;;;;;;4996362;28;20031;-62
2021/09/14 06:56:24;;;;;;;7.30;5.50;;;;;;;;;;4996444;28;20089;-62
2021/09/14 06:58:49;;;;;;;6.55;5.60;;;;;;;;;;4996171;28;20029;-62
2021/09/14 07:01:21;;;;;;;7.18;5.88;;;;;;;;;;4994944;28;20121;-62
2021/09/14 07:03:47;;;;;;;10.15;5.47;;;;;;;;;;4996105;28;20042;-62
2021/09/14 07:06:13;;;;;;;7.90;5.45;;;;;;;;;;4996458;28;20477;-62
2021/09/14 07:08:38;;;;;;;6.10;5.57;;;;;;;;;;4996067;28;20461;-62
2021/09/14 07:11:04;;;;;;;6.72;6.05;;;;;;;;;;4996261;28;20038;-66
2021/09/14 07:13:29;;;;;;;8.23;6.65;;;;;;;;;;4994551;28;20137;-65
2021/09/14 07:15:55;;;;;;;6.72;6.10;;;;;;;;;;4994550;28;20030;-66
2021/09/14 07:18:20;;;;;;;6.63;5.90;;;;;;;;;;4994650;28;20035;-66
2021/09/14 07:20:46;;;;;;;7.18;5.85;;;;;;;;;;4994379;28;20022;-66
2021/09/14 07:23:11;;;;;;;7.60;5.70;;;;;;;;;;4994238;28;20094;-66
2021/09/14 07:25:41;;;;;;;8.15;5.55;;;;;;;;;;4994345;28;20572;-66
2021/09/14 07:28:10;;;;;;;6.30;5.25;;;;;;;;;;4994759;28;20661;-65
2021/09/14 07:30:38;;;;;;;6.57;6.00;;;;;;;;;;4994589;28;20026;-66
2021/09/14 07:33:04;;;;;;;7.40;6.13;;;;;;;;;;4994540;28;20182;-66
2021/09/14 07:35:30;;;;;;;7.22;6.50;;;;;;;;;;4993987;28;20022;-66
2021/09/14 07:37:58;;;;;;;6.57;5.95;;;;;;;;;;4994093;28;20073;-66
2021/09/14 07:40:24;;;;;;;9.88;6.13;;;;;;;;;;4995445;28;20035;-66
2021/09/14 07:42:50;;;;;;;6.40;5.80;;;;;;;;;;5013751;28;20038;-66
2021/09/14 07:45:16;;;;;;;6.80;5.93;;;;;;;;;;4987909;28;20405;-66
2021/09/14 07:47:41;;;;;;;7.00;6.45;;;;;;;;;;5013720;28;20034;-66
2021/09/14 07:50:08;;;;;;;7.55;5.55;;;;;;;;;;5013299;28;20026;-66
2021/09/14 07:52:33;;;;;;;7.65;5.60;;;;;;;;;;5006074;28;20048;-66
2021/09/14 07:54:59;;;;;;;8.90;6.10;;;;;;;;;;5014768;28;20045;-66
2021/09/14 07:57:25;;;;;;;6.78;5.03;;;;;;;;;;5013892;28;20084;-66
2021/09/14 07:59:50;;;;;;;6.88;5.40;;;;;;;;;;5014840;28;20491;-66
2021/09/14 08:02:16;;;;;;;6.18;5.32;;;;;;;;;;5014562;28;20499;-66
2021/09/14 08:04:41;;;;;;;6.13;5.53;;;;;;;;;;5013340;28;20084;-66
2021/09/14 08:07:07;;;;;;;8.15;5.50;;;;;;;;;;5014667;28;20034;-66
2021/09/14 08:09:32;;;;;;;6.75;5.63;;;;;;;;;;5014768;28;20026;-66
2021/09/14 08:11:59;;;;;;;7.05;5.38;;;;;;;;;;5013390;28;20120;-66
2021/09/14 08:14:24;;;;;;;5.28;4.65;;;;;;;;;;5014652;28;20061;-66
2021/09/14 08:16:50;;;;;;;6.15;5.38;;;;;;;;;;5014304;28;20523;-66
2021/09/14 08:19:16;;;;;;;5.93;5.05;;;;;;;;;;5014309;28;20076;-66
2021/09/14 08:21:42;;;;;;;5.72;5.20;;;;;;;;;;5014493;28;20469;-66
2021/09/14 08:24:13;;;;;;;5.43;5.00;;;;;;;;;;5014378;28;20039;-66
2021/09/14 08:26:39;;;;;;;5.32;4.82;;;;;;;;;;5014389;28;20034;-66
2021/09/14 08:29:06;;;;;;;7.15;5.35;;;;;;;;;;5013039;28;20116;-66
2021/09/14 08:31:32;;;;;;;5.88;5.13;;;;;;;;;;5014487;28;20124;-66
2021/09/14 08:33:57;;;;;;;6.53;5.18;;;;;;;;;;5014249;28;20532;-66
2021/09/14 08:36:24;;;;;;;7.32;5.63;;;;;;;;;;5012876;28;20076;-66
2021/09/14 08:38:51;;;;;;;6.63;5.28;;;;;;;;;;5014077;28;20460;-66
2021/09/14 08:41:17;;;;;;;7.90;5.22;;;;;;;;;;5022507;28;20124;-66
2021/09/14 08:43:44;;;;;;;7.13;5.20;;;;;;;;;;5033908;28;20064;-66
2021/09/14 08:46:11;;;;;;;8.10;5.22;;;;;;;;;;5033729;28;20037;-65
2021/09/14 08:48:36;;;;;;;6.00;5.35;;;;;;;;;;5033903;28;20159;-66
2021/09/14 08:51:03;;;;;;;6.82;5.10;;;;;;;;;;5033754;28;20061;-66
2021/09/14 08:53:28;;;;;;;5.93;5.00;;;;;;;;;;5033623;28;20021;-65
2021/09/14 08:55:54;;;;;;;6.82;5.10;;;;;;;;;;5015302;28;20045;-65
2021/09/14 08:58:19;;;;;;;6.93;5.15;;;;;;;;;;5033743;28;20033;-66
2021/09/14 09:00:47;;;;;;;5.65;5.13;;;;;;;;;;5033564;28;20040;-65
2021/09/14 09:03:20;;;;;;;5.80;5.18;;;;;;;;;;5033530;28;20475;-66
2021/09/14 09:05:45;;;;;;;7.35;5.65;;;;;;;;;;5033701;28;20061;-66
2021/09/14 09:08:18;;;;;;;8.18;6.40;;;;;;;;;;5033391;28;20421;-66
2021/09/14 09:10:57;;;;;;;7.32;5.57;;;;;;;;;;5033455;28;20099;-66
2021/09/14 09:13:22;;;;;;;7.22;5.25;;;;;;;;;;5033565;28;20048;-66
2021/09/14 09:15:48;;;;;;;6.82;5.40;;;;;;;;;;5032776;28;20038;-66
2021/09/14 09:18:15;;;;;;;6.10;5.50;;;;;;;;;;5033276;28;20045;-63
2021/09/14 09:20:42;;;;;;;5.70;4.72;;;;;;;;;;5033165;28;20029;-63
2021/09/14 09:23:12;;;;;;;5.15;4.75;;;;;;;;;;5033326;28;20046;-65
2021/09/14 09:25:38;;;;;;;5.38;4.85;;;;;;;;;;5033260;28;20041;-62
2021/09/14 09:28:04;;;;;;;5.20;4.57;;;;;;;;;;5033267;28;20041;-65
2021/09/14 09:30:38;;;;;;;4.45;4.03;;;;;;;;;;5015515;28;20069;-65
2021/09/14 09:33:08;;;;;;;5.85;4.93;;;;;;;;;;5033294;28;20097;-65
2021/09/14 09:35:40;;;;;;;4.80;4.38;;;;;;;;;;5032883;28;20132;-65
2021/09/14 09:38:07;;;;;;;4.90;4.50;;;;;;;;;;5033031;28;20543;-65
2021/09/14 09:40:34;;;;;;;4.78;4.30;;;;;;;;;;5032744;28;20048;-65
2021/09/14 09:43:03;;;;;;;4.07;3.78;;;;;;;;;;5033230;28;20038;-62
2021/09/14 09:45:29;;;;;;;4.53;4.13;;;;;;;;;;5032996;28;20037;-62
2021/09/14 09:47:54;;;;;;;4.82;4.43;;;;;;;;;;5033359;28;20029;-62
2021/09/14 09:50:21;;;;;;;4.65;4.25;;;;;;;;;;4998460;28;20045;-62
2021/09/14 09:52:47;;;;;;;4.85;3.88;;;;;;;;;;5015558;28;20495;-62
2021/09/14 09:55:12;;;;;;;6.43;5.07;;;;;;;;;;5032878;28;20040;-62
2021/09/14 09:57:38;;;;;;;6.28;5.20;;;;;;;;;;5033101;28;20460;-62
2021/09/14 10:00:08;;;;;;;8.25;5.55;;;;;;;;;;5015189;28;20049;-62
2021/09/14 10:02:40;;;;;;;11.07;6.20;;;;;;;;;;5016330;28;20041;-62
2021/09/14 10:05:07;;;;;;;11.60;5.50;;;;;;;;;;5032763;28;20034;-62
2021/09/14 10:07:34;;;;;;;7.38;5.50;;;;;;;;;;5015149;28;20112;-62
2021/09/14 10:10:00;;;;;;;5.93;5.25;;;;;;;;;;5032796;28;20033;-62
2021/09/14 10:12:33;;;;;;;6.00;5.50;;;;;;;;;;5015118;28;20112;-62
2021/09/14 10:15:02;;;;;;;6.32;5.72;;;;;;;;;;5015168;28;20075;-62
2021/09/14 10:17:28;;;;;;;6.28;5.10;;;;;;;;;;5032672;28;20076;-62
2021/09/14 10:19:54;;;;;;;5.63;5.05;;;;;;;;;;5032692;28;20458;-62
2021/09/14 10:22:24;;;;;;;6.60;4.30;;;;;;;;;;5032718;28;20053;-62
2021/09/14 10:24:51;;;;;;;9.20;4.85;;;;;;;;;;5032758;28;20365;-62
2021/09/14 10:27:17;;;;;;;4.70;4.28;;;;;;;;;;5034251;28;20032;-62
2021/09/14 10:29:43;;;;;;;5.57;3.90;;;;;;;;;;5036206;28;20087;-62
2021/09/14 10:32:09;;;;;;;9.07;5.10;;;;;;;;;;5036190;28;20034;-62
2021/09/14 10:34:42;;;;;;;6.45;5.03;;;;;;;;;;5036050;28;20380;-62
2021/09/14 10:37:08;;;;;;;6.70;4.65;;;;;;;;;;5036355;28;20049;-62
2021/09/14 10:39:35;;;;;;;5.28;4.78;;;;;;;;;;5035858;28;20026;-62
2021/09/14 10:42:11;;;;;;;5.03;4.32;;;;;;;;;;5036165;28;20052;-62
2021/09/14 10:44:36;;;;;;;4.72;4.32;;;;;;;;;;5036021;28;20456;-62
2021/09/14 10:47:06;;;;;;;6.22;4.50;;;;;;;;;;5035836;28;20124;-62
2021/09/14 10:49:50;;;;;;;4.90;4.50;;;;;;;;;;5035849;28;20045;-62
2021/09/14 10:52:18;;;;;;;5.28;4.80;;;;;;;;;;5035845;28;20414;-62
2021/09/14 10:54:47;;;;;;;6.75;5.13;;;;;;;;;;5035826;28;20044;-62
2021/09/14 10:57:13;;;;;;;6.70;5.38;;;;;;;;;;5035961;28;20041;-62
2021/09/14 10:59:38;;;;;;;5.78;4.85;;;;;;;;;;5035628;28;20072;-62
2021/09/14 11:02:04;;;;;;;5.53;5.03;;;;;;;;;;5035676;28;20041;-62
2021/09/14 11:04:29;;;;;;;6.72;5.28;;;;;;;;;;5017802;28;20025;-62
2021/09/14 11:06:55;;;;;;;5.28;4.75;;;;;;;;;;5017773;28;20128;-62
2021/09/14 11:09:23;;;;;;;6.35;4.90;;;;;;;;;;5035383;28;20025;-62
2021/09/14 11:11:49;;;;;;;5.32;4.82;;;;;;;;;;5035426;28;20507;-62
2021/09/14 11:14:15;;;;;;;4.85;4.30;;;;;;;;;;5035227;28;20026;-62
2021/09/14 11:16:44;;;;;;;4.45;4.05;;;;;;;;;;5017554;28;20045;-62
2021/09/14 11:19:09;;;;;;;5.25;4.00;;;;;;;;;;5035535;28;20102;-62
2021/09/14 11:21:42;;;;;;;5.50;4.40;;;;;;;;;;5035245;28;20480;-62
2021/09/14 11:24:08;;;;;;;4.90;4.50;;;;;;;;;;5035190;28;20041;-62
2021/09/14 11:26:34;;;;;;;4.70;4.30;;;;;;;;;;5035162;28;20041;-62
2021/09/14 11:29:00;;;;;;;4.80;4.50;;;;;;;;;;5035042;28;20036;-61
2021/09/14 11:31:26;;;;;;;5.20;4.70;;;;;;;;;;5034827;28;20022;-62
2021/09/14 11:33:52;;;;;;;5.53;4.90;;;;;;;;;;5035056;28;20038;-62
2021/09/14 11:36:18;;;;;;;4.82;4.38;;;;;;;;;;5034928;28;20048;-62
2021/09/14 11:38:43;;;;;;;5.47;4.97;;;;;;;;;;5034120;28;20033;-62
2021/09/14 11:41:12;;;;;;;6.43;5.47;;;;;;;;;;5034617;28;20068;-62
2021/09/14 11:43:43;;;;;;;7.05;5.47;;;;;;;;;;5034906;28;20056;-62
2021/09/14 11:46:13;;;;;;;5.13;4.60;;;;;;;;;;5017214;28;20041;-62
2021/09/14 11:48:38;;;;;;;5.47;4.97;;;;;;;;;;5034729;28;20033;-62
2021/09/14 11:51:08;;;;;;;5.18;4.68;;;;;;;;;;5034882;28;20099;-62
2021/09/14 11:53:34;;;;;;;5.43;4.93;;;;;;;;;;5034960;28;20053;-62
2021/09/14 11:56:00;;;;;;;5.20;4.70;;;;;;;;;;5034822;28;20128;-62
2021/09/14 11:58:33;;;;;;;6.88;5.30;;;;;;;;;;5034791;28;20033;-62
2021/09/14 12:01:07;;;;;;;5.50;4.97;;;;;;;;;;5034545;28;20025;-62
2021/09/14 12:03:39;;;;;;;5.35;4.95;;;;;;;;;;5034546;28;20044;-62
2021/09/14 12:06:06;;;;;;;5.82;5.15;;;;;;;;;;5034263;28;20044;-62
2021/09/14 12:08:35;;;;;;;5.50;5.00;;;;;;;;;;5034267;28;20037;-62
2021/09/14 12:11:02;;;;;;;6.05;5.13;;;;;;;;;;5034361;28;20467;-62
2021/09/14 12:13:34;;;;;;;6.53;5.43;;;;;;;;;;5034467;28;20086;-62
2021/09/14 12:16:05;;;;;;;6.97;5.10;;;;;;;;;;5034349;28;20084;-62
2021/09/14 12:18:30;;;;;;;;;;;;;;;;;;5000727;28;20407;-62
2021/09/14 12:20:55;;;;;;;5.30;4.78;;;;;;;;;;5034316;28;19905;-62
2021/09/14 12:23:21;;;;;;;5.63;5.13;;;;;;;;;;5034110;28;20391;-60
2021/09/14 12:25:49;;;;;;;4.90;4.13;;;;;;;;;;5034060;28;20036;-60
2021/09/14 12:28:14;;;;;;;5.05;4.28;;;;;;;;;;5034304;28;20037;-60
2021/09/14 12:30:39;;;;;;;4.82;4.32;;;;;;;;;;5033990;28;20029;-59
2021/09/14 12:33:05;;;;;;;5.15;4.70;;;;;;;;;;5016306;28;20034;-59
2021/09/14 12:35:31;;;;;;;5.60;5.03;;;;;;;;;;5033714;28;20133;-60
2021/09/14 12:37:56;;;;;;;4.88;4.55;;;;;;;;;;5033820;28;20116;-60
2021/09/14 12:40:22;;;;;;;5.03;4.63;;;;;;;;;;5033903;28;20025;-60
2021/09/14 12:42:48;;;;;;;6.15;5.35;;;;;;;;;;5016305;28;20399;-60
2021/09/14 12:45:13;;;;;;;6.72;5.28;;;;;;;;;;5033950;28;20049;-60
2021/09/14 12:47:39;;;;;;;6.03;5.38;;;;;;;;;;5033777;28;20092;-60
2021/09/14 12:50:05;;;;;;;6.43;5.82;;;;;;;;;;5033065;28;20025;-60
2021/09/14 12:52:31;;;;;;;5.95;5.35;;;;;;;;;;5033586;28;20052;-60
2021/09/14 12:54:56;;;;;;;5.20;4.40;;;;;;;;;;5033538;28;20033;-59
2021/09/14 12:57:22;;;;;;;8.23;6.20;;;;;;;;;;5033798;28;20044;-60
2021/09/14 12:59:47;;;;;;;6.50;5.47;;;;;;;;;;5015900;28;20049;-60
2021/09/14 13:02:13;;;;;;;4.80;4.40;;;;;;;;;;5033745;28;20038;-60
2021/09/14 13:04:38;;;;;;;5.95;5.32;;;;;;;;;;5033342;28;20391;-60
2021/09/14 13:07:04;;;;;;;6.18;5.57;;;;;;;;;;5033475;28;20033;-59
2021/09/14 13:09:29;;;;;;;6.43;5.57;;;;;;;;;;5033539;28;20037;-59
2021/09/14 13:11:55;;;;;;;5.97;5.47;;;;;;;;;;5033331;28;20049;-59
2021/09/14 13:17:04;;;;;;;7.10;4.78;;;;;;;;;;5033416;28;20060;-59
2021/09/14 13:19:30;;;;;;;5.35;4.85;;;;;;;;;;5033311;28;20480;-59
2021/09/14 13:21:55;;;;;;;4.90;4.22;;;;;;;;;;5033254;28;20365;-59
2021/09/14 13:24:22;;;;;;;6.63;6.10;;;;;;;;;;5015667;28;20361;-60
2021/09/14 13:26:48;;;;;;;6.53;5.90;;;;;;;;;;5015463;28;20060;-60
2021/09/14 13:29:13;;;;;;;6.05;5.47;;;;;;;;;;5033140;28;20075;-60
2021/09/14 13:31:39;;;;;;;5.55;5.13;;;;;;;;;;5033129;28;20476;-60
2021/09/14 13:34:04;;;;;;;6.25;5.60;;;;;;;;;;5033259;28;20030;-60
2021/09/14 13:36:30;;;;;;;5.93;5.13;;;;;;;;;;5015425;28;20045;-59
2021/09/14 13:38:56;;;;;;;6.05;5.40;;;;;;;;;;5033093;28;20037;-59
2021/09/14 13:41:27;;;;;;;6.13;5.38;;;;;;;;;;5032679;28;20558;-60
2021/09/14 13:43:54;;;;;;;6.55;5.00;;;;;;;;;;5033180;28;20026;-59
2021/09/14 13:46:20;;;;;;;6.10;5.50;;;;;;;;;;5023529;28;20495;-59
2021/09/14 13:48:49;;;;;;;7.47;5.53;;;;;;;;;;5013007;28;20046;-59
2021/09/14 13:51:16;;;;;;;6.72;6.13;;;;;;;;;;5013464;28;20085;-60
2021/09/14 13:53:43;;;;;;;6.85;6.15;;;;;;;;;;4995796;28;20037;-60
2021/09/14 13:56:11;;;;;;;8.10;6.38;;;;;;;;;;5013220;28;20044;-60
2021/09/14 13:58:36;;;;;;;5.85;5.35;;;;;;;;;;4995947;28;20372;-60
2021/09/14 14:01:02;;;;;;;6.50;5.50;;;;;;;;;;5014121;28;20049;-61
2021/09/14 14:03:28;;;;;;;7.82;6.88;;;;;;;;;;5017082;28;20440;-63
2021/09/14 14:05:53;;;;;;;7.57;6.22;;;;;;;;;;5017120;28;20096;-63
2021/09/14 14:08:19;;;;;;;8.60;5.47;;;;;;;;;;5021697;28;20044;-63
2021/09/14 14:10:46;;;;;;;7.72;6.93;;;;;;;;;;5024384;28;20045;-63
2021/09/14 14:13:12;;;;;;;9.15;6.07;;;;;;;;;;5027252;28;20025;-62
2021/09/14 14:15:38;;;;;;;6.88;6.18;;;;;;;;;;5024218;28;20453;-61
2021/09/14 14:18:03;;;;;;;10.65;8.73;;;;;;;;;;5024279;28;20022;-61
2021/09/14 14:20:34;;;;;;;11.55;9.50;;;;;;;;;;5009432;28;20044;-61
2021/09/14 14:23:00;;;;;;;6.38;5.78;;;;;;;;;;5036320;28;20038;-61
2021/09/14 14:25:29;;;;;;;9.77;7.13;;;;;;;;;;5036625;28;20040;-61
2021/09/14 14:27:54;;;;;;;8.10;6.07;;;;;;;;;;5023027;28;20396;-61
2021/09/14 14:30:20;;;;;;;6.45;5.93;;;;;;;;;;5016364;28;20037;-61
2021/09/14 14:32:49;;;;;;;15.68;11.43;;;;;;;;;;5016305;28;20128;-61
2021/09/14 14:35:14;;;;;;;12.35;8.85;;;;;;;;;;5015948;28;20109;-60
2021/09/14 14:37:40;;;;;;;12.82;8.95;;;;;;;;;;5015741;28;20041;-61
2021/09/14 14:40:05;;;;;;;12.27;7.22;;;;;;;;;;5015932;28;20476;-61
2021/09/14 14:42:31;;;;;;;12.32;8.95;;;;;;;;;;5015743;28;20528;-61
2021/09/14 14:44:56;;;;;;;11.98;7.85;;;;;;;;;;5016429;28;20030;-61
2021/09/14 14:47:22;;;;;;;7.13;6.55;;;;;;;;;;5016255;28;20400;-61
2021/09/14 14:49:48;;;;;;;9.93;6.60;;;;;;;;;;4999414;28;20102;-61
2021/09/14 14:52:13;;;;;;;12.32;8.15;;;;;;;;;;4998583;28;20133;-61
2021/09/14 14:54:39;;;;;;;18.38;11.43;;;;;;;;;;5016033;28;20030;-61
2021/09/14 14:57:04;;;;;;;9.70;6.78;;;;;;;;;;5015732;28;20050;-61
2021/09/14 14:59:31;;;;;;;7.07;6.47;;;;;;;;;;4998222;28;20025;-61
2021/09/14 15:05:31;;;;;;;26.80;21.58;;;;;;;;;;5016475;28;20080;-61
2021/09/14 15:11:31;;;;;;;6.93;6.18;;;;;;;;;;5016146;28;20120;-61
2021/09/14 15:17:33;;;;;;;5.72;5.20;;;;;;;;;;5016272;28;20068;-61
2021/09/14 15:23:34;;;;;;;5.65;5.15;;;;;;;;;;5016120;28;20036;-61
2021/09/14 15:29:35;;;;;;;9.75;7.10;;;;;;;;;;5015741;28;20483;-61
2021/09/14 15:35:36;;;;;;;18.40;11.93;;;;;;;;;;5015783;28;20036;-61
2021/09/14 15:45:12;;;;;;;11.35;7.88;;;;;;;;;;5015715;28;20079;-61
2021/09/14 15:51:13;;;;;;;7.50;6.65;;;;;;;;;;5015357;28;20096;-61
2021/09/14 15:57:13;;;;;;;8.00;6.75;;;;;;;;;;5015199;28;20056;-61
2021/09/14 16:03:14;;;;;;;15.68;10.40;;;;;;;;;;5015385;28;20036;-61
2021/09/14 16:09:15;;;;;;;14.85;9.00;;;;;;;;;;5015300;28;20029;-61
2021/09/14 16:15:15;;;;;;;10.68;7.38;;;;;;;;;;5015119;28;20372;-61
2021/09/14 16:21:15;;;;;;;6.88;6.20;;;;;;;;;;5015076;28;20097;-61
2021/09/14 16:24:08;;;;;;;8.63;6.63;;;;;;;;;;5014332;28;20045;-62
2021/09/14 16:26:34;;;;;;;16.40;11.25;;;;;;;;;;5013684;28;20029;-61
2021/09/14 16:29:04;;;;;;;21.15;12.05;;;;;;;;;;5014157;28;20033;-62
2021/09/14 16:31:29;;;;;;;23.00;12.80;;;;;;;;;;5014319;28;20089;-62